This is the latest recevied weather packets stored in our database for station/object PY2RMF-10. If no packets are shown the sender has not sent any weather packets the latest 10 day(s).
| Time | Temp. | Humidity | Pressure | Rain* | Wind** | Luminosity | Snow |
|---|---|---|---|---|---|---|---|
| 1777679317 | 23.33° C | 100% | 1006 hPa | - | - | - | - |
| 1777677511 | 23.89° C | 100% | 1006 hPa | - | - | - | - |
| 1777675711 | 23.33° C | 100% | 1006 hPa | - | - | - | - |
| 1777673912 | 23.33° C | 100% | 1005 hPa | - | - | - | - |
| 1777672112 | 23.89° C | 100% | 1005 hPa | - | - | - | - |
| 1777670312 | 23.89° C | 100% | 1005 hPa | - | - | - | - |
| 1777668511 | 24.44° C | 100% | 1005 hPa | - | - | - | - |
| 1777666713 | 25.56° C | 100% | 1005 hPa | - | - | - | - |
| 1777664911 | 27.22° C | 93% | 1005 hPa | - | - | - | - |
| 1777663112 | 28.89° C | 75% | 1005 hPa | - | - | - | - |
| 1777661312 | 30.56° C | 57% | 1004 hPa | - | - | - | - |
| 1777659511 | 31.67° C | 54% | 1004 hPa | - | - | - | - |
| 1777657711 | 32.78° C | 47% | 1004 hPa | - | - | - | - |
| 1777655911 | 32.22° C | 54% | 1005 hPa | - | - | - | - |
| 1777654111 | 35° C | 40% | 1005 hPa | - | - | - | - |
| 1777652312 | 36.67° C | 38% | 1005 hPa | - | - | - | - |
| 1777650512 | 36.11° C | 44% | 1006 hPa | - | - | - | - |
| 1777648712 | 32.78° C | 56% | 1006 hPa | - | - | - | - |
| 1777646911 | 30° C | 78% | 1007 hPa | - | - | - | - |
| 1777645111 | 27.22° C | 92% | 1007 hPa | - | - | - | - |
| 1777643311 | 27.78° C | 93% | 1008 hPa | - | - | - | - |
| 1777641512 | 25.56° C | 100% | 1008 hPa | - | - | - | - |
| 1777639711 | 23.89° C | 100% | 1008 hPa | - | - | - | - |
| 1777637911 | 22.22° C | 100% | 1008 hPa | - | - | - | - |
| 1777636111 | 21.67° C | 100% | 1008 hPa | - | - | - | - |
* Rain since midnight (hover to see other rain measurements)
** Current wind speed in m/s (hover to see current wind gust speed)